CYAM

Sault Ste Marie  Airport

Sault Ste Marie, Ontario, Canada

CYAM 201100Z 24009KT 12SM -SHSN SCT018 BKN024TCU BKN043 M02/M05 A2982 RMK CF3TCU2SC1 SLP110

Observed Flight Rules
Nov-20 @ 11:00 UTC (24 minutes ago)
 
Marginal Visual Flight Rules
Wind Visibility Clouds Conditions
240° at 9 knots 12 miles
  • Scattered at 1,800' AGL
  • Broken at 2,400' AGL
  • Broken at 4,300' AGL
  • Light Snow
Temperatures Readings
Current -2°C / 28°F
Dewpoint -5°C / 23°F
Humidity 80%
Altimeter 29.82" Hg
Pressure 1011 hPa
Elevation 192
Observed Flight Rules
Nov-20 @ 11:00 UTC
(24 minutes ago)
 
MVFR
Wind Visibility
240° at 9 knots 12 miles
Clouds
  • Scattered at 1,800' AGL
  • Broken at 2,400' AGL
  • Broken at 4,300' AGL
Conditions
  • Light Snow
Temperature Dewpoint
-2°C / 28°F -5°C / 23°F
Humidity Altimeter Pressure
80% 29.82" Hg 1011 hPa